sensor_id;sensor_type;location;lat;lon;timestamp;P1;durP1;ratioP1;P2;durP2;ratioP2
12124;SDS011;6126;57.908;16.490;2023-06-22T00:02:13;10.13;;;9.13;;
12124;SDS011;6126;57.908;16.490;2023-06-22T00:04:39;10.68;;;9.57;;
12124;SDS011;6126;57.908;16.490;2023-06-22T00:07:05;9.82;;;8.82;;
12124;SDS011;6126;57.908;16.490;2023-06-22T00:09:32;10.43;;;9.40;;
12124;SDS011;6126;57.908;16.490;2023-06-22T00:11:58;10.82;;;9.70;;
12124;SDS011;6126;57.908;16.490;2023-06-22T00:14:24;10.57;;;9.57;;
12124;SDS011;6126;57.908;16.490;2023-06-22T00:16:50;10.38;;;9.38;;
12124;SDS011;6126;57.908;16.490;2023-06-22T00:19:20;9.68;;;8.70;;
12124;SDS011;6126;57.908;16.490;2023-06-22T00:21:47;10.50;;;9.48;;
12124;SDS011;6126;57.908;16.490;2023-06-22T00:24:17;10.80;;;9.52;;
12124;SDS011;6126;57.908;16.490;2023-06-22T00:26:44;11.15;;;10.05;;
12124;SDS011;6126;57.908;16.490;2023-06-22T00:29:11;12.38;;;10.60;;
12124;SDS011;6126;57.908;16.490;2023-06-22T00:31:37;10.18;;;9.20;;
12124;SDS011;6126;57.908;16.490;2023-06-22T00:34:03;10.73;;;9.18;;
12124;SDS011;6126;57.908;16.490;2023-06-22T00:36:29;12.45;;;9.32;;
12124;SDS011;6126;57.908;16.490;2023-06-22T00:38:55;10.70;;;8.73;;
12124;SDS011;6126;57.908;16.490;2023-06-22T00:41:21;8.75;;;7.88;;
12124;SDS011;6126;57.908;16.490;2023-06-22T00:43:46;9.43;;;8.45;;
12124;SDS011;6126;57.908;16.490;2023-06-22T00:46:12;10.00;;;9.00;;
12124;SDS011;6126;57.908;16.490;2023-06-22T00:48:38;9.48;;;8.43;;
12124;SDS011;6126;57.908;16.490;2023-06-22T00:51:06;9.18;;;8.27;;
12124;SDS011;6126;57.908;16.490;2023-06-22T00:53:32;9.32;;;8.15;;
12124;SDS011;6126;57.908;16.490;2023-06-22T00:56:00;9.23;;;8.32;;
12124;SDS011;6126;57.908;16.490;2023-06-22T00:58:28;9.52;;;8.52;;
12124;SDS011;6126;57.908;16.490;2023-06-22T01:00:54;9.18;;;8.30;;
12124;SDS011;6126;57.908;16.490;2023-06-22T01:03:20;8.38;;;7.50;;
12124;SDS011;6126;57.908;16.490;2023-06-22T01:05:46;8.07;;;6.82;;
12124;SDS011;6126;57.908;16.490;2023-06-22T01:08:33;9.65;;;7.20;;
12124;SDS011;6126;57.908;16.490;2023-06-22T01:11:26;7.38;;;6.05;;
12124;SDS011;6126;57.908;16.490;2023-06-22T01:15:11;7.85;;;7.07;;
12124;SDS011;6126;57.908;16.490;2023-06-22T01:17:10;8.57;;;6.93;;
12124;SDS011;6126;57.908;16.490;2023-06-22T01:22:14;6.88;;;5.53;;
12124;SDS011;6126;57.908;16.490;2023-06-22T01:31:10;6.10;;;5.07;;
12124;SDS011;6126;57.908;16.490;2023-06-22T01:33:42;7.20;;;5.20;;
12124;SDS011;6126;57.908;16.490;2023-06-22T01:36:13;7.40;;;6.10;;
12124;SDS011;6126;57.908;16.490;2023-06-22T01:38:41;5.38;;;4.82;;
12124;SDS011;6126;57.908;16.490;2023-06-22T01:41:10;6.75;;;4.90;;
12124;SDS011;6126;57.908;16.490;2023-06-22T01:43:37;6.28;;;5.10;;
12124;SDS011;6126;57.908;16.490;2023-06-22T01:46:03;8.48;;;4.72;;
12124;SDS011;6126;57.908;16.490;2023-06-22T01:48:30;5.57;;;4.95;;
12124;SDS011;6126;57.908;16.490;2023-06-22T01:50:57;4.90;;;4.45;;
12124;SDS011;6126;57.908;16.490;2023-06-22T01:53:23;6.32;;;4.50;;
12124;SDS011;6126;57.908;16.490;2023-06-22T01:55:49;7.07;;;3.88;;
12124;SDS011;6126;57.908;16.490;2023-06-22T01:58:15;5.53;;;5.03;;
12124;SDS011;6126;57.908;16.490;2023-06-22T02:00:48;5.50;;;4.57;;
12124;SDS011;6126;57.908;16.490;2023-06-22T02:03:30;5.32;;;4.57;;
12124;SDS011;6126;57.908;16.490;2023-06-22T02:06:05;6.53;;;4.70;;
12124;SDS011;6126;57.908;16.490;2023-06-22T02:08:40;5.03;;;4.53;;
12124;SDS011;6126;57.908;16.490;2023-06-22T02:11:15;4.80;;;4.30;;
12124;SDS011;6126;57.908;16.490;2023-06-22T02:13:45;4.72;;;4.22;;
12124;SDS011;6126;57.908;16.490;2023-06-22T02:16:12;5.88;;;4.55;;
12124;SDS011;6126;57.908;16.490;2023-06-22T02:18:47;4.75;;;4.22;;
12124;SDS011;6126;57.908;16.490;2023-06-22T02:21:19;5.10;;;4.30;;
12124;SDS011;6126;57.908;16.490;2023-06-22T02:23:46;5.40;;;4.57;;
12124;SDS011;6126;57.908;16.490;2023-06-22T02:26:12;5.00;;;4.50;;
12124;SDS011;6126;57.908;16.490;2023-06-22T02:28:40;5.95;;;3.78;;
12124;SDS011;6126;57.908;16.490;2023-06-22T02:31:06;5.57;;;3.90;;
12124;SDS011;6126;57.908;16.490;2023-06-22T02:33:32;5.55;;;3.40;;
12124;SDS011;6126;57.908;16.490;2023-06-22T02:35:58;3.25;;;2.95;;
12124;SDS011;6126;57.908;16.490;2023-06-22T02:38:24;2.80;;;2.50;;
12124;SDS011;6126;57.908;16.490;2023-06-22T02:40:50;4.95;;;2.17;;
12124;SDS011;6126;57.908;16.490;2023-06-22T02:43:16;3.90;;;2.70;;
12124;SDS011;6126;57.908;16.490;2023-06-22T02:45:42;3.30;;;2.20;;
12124;SDS011;6126;57.908;16.490;2023-06-22T02:48:08;2.72;;;1.95;;
12124;SDS011;6126;57.908;16.490;2023-06-22T02:50:35;2.40;;;2.10;;
12124;SDS011;6126;57.908;16.490;2023-06-22T02:53:00;3.47;;;2.00;;
12124;SDS011;6126;57.908;16.490;2023-06-22T02:55:26;3.03;;;2.38;;
12124;SDS011;6126;57.908;16.490;2023-06-22T02:57:52;4.38;;;2.25;;
12124;SDS011;6126;57.908;16.490;2023-06-22T03:00:18;2.95;;;2.08;;
12124;SDS011;6126;57.908;16.490;2023-06-22T03:02:45;4.90;;;2.45;;
12124;SDS011;6126;57.908;16.490;2023-06-22T03:05:13;2.20;;;2.00;;
12124;SDS011;6126;57.908;16.490;2023-06-22T03:07:43;2.63;;;2.13;;
12124;SDS011;6126;57.908;16.490;2023-06-22T03:10:10;2.00;;;1.70;;
12124;SDS011;6126;57.908;16.490;2023-06-22T03:12:38;2.63;;;2.30;;
12124;SDS011;6126;57.908;16.490;2023-06-22T03:15:07;3.72;;;2.17;;
12124;SDS011;6126;57.908;16.490;2023-06-22T03:17:38;4.43;;;2.00;;
12124;SDS011;6126;57.908;16.490;2023-06-22T03:20:06;3.03;;;1.60;;
12124;SDS011;6126;57.908;16.490;2023-06-22T03:22:40;2.58;;;1.80;;
12124;SDS011;6126;57.908;16.490;2023-06-22T03:25:07;3.45;;;1.73;;
12124;SDS011;6126;57.908;16.490;2023-06-22T03:27:36;5.40;;;1.77;;
12124;SDS011;6126;57.908;16.490;2023-06-22T03:30:04;3.60;;;1.70;;
12124;SDS011;6126;57.908;16.490;2023-06-22T03:32:32;2.33;;;1.90;;
12124;SDS011;6126;57.908;16.490;2023-06-22T03:34:58;3.05;;;1.83;;
12124;SDS011;6126;57.908;16.490;2023-06-22T03:37:24;3.63;;;1.92;;
12124;SDS011;6126;57.908;16.490;2023-06-22T03:39:51;3.88;;;2.08;;
12124;SDS011;6126;57.908;16.490;2023-06-22T03:42:18;3.80;;;1.88;;
12124;SDS011;6126;57.908;16.490;2023-06-22T03:44:44;3.28;;;1.98;;
12124;SDS011;6126;57.908;16.490;2023-06-22T03:47:10;1.98;;;1.77;;
12124;SDS011;6126;57.908;16.490;2023-06-22T03:49:37;3.30;;;1.73;;
12124;SDS011;6126;57.908;16.490;2023-06-22T03:52:03;2.33;;;1.73;;
12124;SDS011;6126;57.908;16.490;2023-06-22T03:54:30;3.63;;;1.75;;
12124;SDS011;6126;57.908;16.490;2023-06-22T03:56:57;2.67;;;2.10;;
12124;SDS011;6126;57.908;16.490;2023-06-22T03:59:23;3.75;;;1.75;;
12124;SDS011;6126;57.908;16.490;2023-06-22T04:01:50;1.95;;;1.77;;
12124;SDS011;6126;57.908;16.490;2023-06-22T04:04:19;4.45;;;2.15;;
12124;SDS011;6126;57.908;16.490;2023-06-22T04:06:45;2.58;;;1.80;;
12124;SDS011;6126;57.908;16.490;2023-06-22T04:09:11;2.90;;;1.85;;
12124;SDS011;6126;57.908;16.490;2023-06-22T04:11:38;8.50;;;2.30;;
12124;SDS011;6126;57.908;16.490;2023-06-22T04:14:03;3.72;;;1.80;;
12124;SDS011;6126;57.908;16.490;2023-06-22T04:16:29;6.43;;;2.45;;
12124;SDS011;6126;57.908;16.490;2023-06-22T04:18:55;2.28;;;1.90;;
12124;SDS011;6126;57.908;16.490;2023-06-22T04:21:21;4.32;;;1.88;;
12124;SDS011;6126;57.908;16.490;2023-06-22T04:23:47;2.72;;;1.85;;
12124;SDS011;6126;57.908;16.490;2023-06-22T04:26:13;2.00;;;1.55;;
12124;SDS011;6126;57.908;16.490;2023-06-22T04:28:39;3.30;;;1.75;;
12124;SDS011;6126;57.908;16.490;2023-06-22T04:31:06;5.65;;;2.30;;
12124;SDS011;6126;57.908;16.490;2023-06-22T04:33:32;3.03;;;1.77;;
12124;SDS011;6126;57.908;16.490;2023-06-22T04:35:58;1.90;;;1.80;;
12124;SDS011;6126;57.908;16.490;2023-06-22T04:38:29;3.63;;;2.08;;
12124;SDS011;6126;57.908;16.490;2023-06-22T04:40:59;2.38;;;1.80;;
12124;SDS011;6126;57.908;16.490;2023-06-22T04:43:28;3.45;;;2.25;;
12124;SDS011;6126;57.908;16.490;2023-06-22T04:45:56;2.72;;;2.00;;
12124;SDS011;6126;57.908;16.490;2023-06-22T04:48:28;3.55;;;2.05;;
12124;SDS011;6126;57.908;16.490;2023-06-22T04:51:01;3.10;;;2.00;;
12124;SDS011;6126;57.908;16.490;2023-06-22T04:53:30;3.28;;;2.15;;
12124;SDS011;6126;57.908;16.490;2023-06-22T04:55:57;3.85;;;1.90;;
12124;SDS011;6126;57.908;16.490;2023-06-22T04:58:23;2.70;;;2.30;;
12124;SDS011;6126;57.908;16.490;2023-06-22T05:00:52;2.28;;;2.08;;
12124;SDS011;6126;57.908;16.490;2023-06-22T05:03:17;5.05;;;2.30;;
12124;SDS011;6126;57.908;16.490;2023-06-22T05:05:43;2.67;;;1.98;;
12124;SDS011;6126;57.908;16.490;2023-06-22T05:08:09;2.30;;;2.10;;
12124;SDS011;6126;57.908;16.490;2023-06-22T05:10:35;2.50;;;2.30;;
12124;SDS011;6126;57.908;16.490;2023-06-22T05:13:01;2.55;;;1.98;;
12124;SDS011;6126;57.908;16.490;2023-06-22T05:15:27;5.15;;;2.50;;
12124;SDS011;6126;57.908;16.490;2023-06-22T05:17:55;2.20;;;2.00;;
12124;SDS011;6126;57.908;16.490;2023-06-22T05:20:21;2.47;;;1.83;;
12124;SDS011;6126;57.908;16.490;2023-06-22T05:22:47;3.65;;;2.35;;
12124;SDS011;6126;57.908;16.490;2023-06-22T05:25:13;2.25;;;2.05;;
12124;SDS011;6126;57.908;16.490;2023-06-22T05:27:39;2.95;;;2.22;;
12124;SDS011;6126;57.908;16.490;2023-06-22T05:30:05;3.13;;;1.88;;
12124;SDS011;6126;57.908;16.490;2023-06-22T05:32:33;3.55;;;2.85;;
12124;SDS011;6126;57.908;16.490;2023-06-22T05:34:59;3.78;;;2.50;;
12124;SDS011;6126;57.908;16.490;2023-06-22T05:37:25;2.95;;;2.10;;
12124;SDS011;6126;57.908;16.490;2023-06-22T05:39:51;2.40;;;2.08;;
12124;SDS011;6126;57.908;16.490;2023-06-22T05:42:19;2.80;;;2.35;;
12124;SDS011;6126;57.908;16.490;2023-06-22T05:44:44;3.35;;;2.10;;
12124;SDS011;6126;57.908;16.490;2023-06-22T05:47:11;3.80;;;2.42;;
12124;SDS011;6126;57.908;16.490;2023-06-22T05:49:38;3.00;;;2.03;;
12124;SDS011;6126;57.908;16.490;2023-06-22T05:52:04;2.95;;;2.15;;
12124;SDS011;6126;57.908;16.490;2023-06-22T05:54:30;3.35;;;2.40;;
12124;SDS011;6126;57.908;16.490;2023-06-22T05:56:55;2.35;;;2.08;;
12124;SDS011;6126;57.908;16.490;2023-06-22T05:59:22;3.80;;;2.50;;
12124;SDS011;6126;57.908;16.490;2023-06-22T06:01:48;3.10;;;2.15;;
12124;SDS011;6126;57.908;16.490;2023-06-22T06:04:17;6.45;;;2.53;;
12124;SDS011;6126;57.908;16.490;2023-06-22T06:06:44;5.00;;;2.33;;
12124;SDS011;6126;57.908;16.490;2023-06-22T06:09:11;4.32;;;2.63;;
12124;SDS011;6126;57.908;16.490;2023-06-22T06:11:39;3.70;;;2.42;;
12124;SDS011;6126;57.908;16.490;2023-06-22T06:14:05;3.55;;;2.03;;
12124;SDS011;6126;57.908;16.490;2023-06-22T06:16:31;3.65;;;2.33;;
12124;SDS011;6126;57.908;16.490;2023-06-22T06:18:57;3.38;;;2.45;;
12124;SDS011;6126;57.908;16.490;2023-06-22T06:21:23;6.22;;;2.50;;
12124;SDS011;6126;57.908;16.490;2023-06-22T06:23:49;2.83;;;2.40;;
12124;SDS011;6126;57.908;16.490;2023-06-22T06:26:15;3.38;;;2.45;;
12124;SDS011;6126;57.908;16.490;2023-06-22T06:28:53;2.88;;;2.33;;
12124;SDS011;6126;57.908;16.490;2023-06-22T06:31:20;2.65;;;1.92;;
12124;SDS011;6126;57.908;16.490;2023-06-22T06:33:46;2.58;;;2.38;;
12124;SDS011;6126;57.908;16.490;2023-06-22T06:36:12;2.92;;;2.40;;
12124;SDS011;6126;57.908;16.490;2023-06-22T06:38:37;4.75;;;2.00;;
12124;SDS011;6126;57.908;16.490;2023-06-22T06:41:03;3.90;;;2.05;;
12124;SDS011;6126;57.908;16.490;2023-06-22T06:43:29;2.47;;;2.10;;
12124;SDS011;6126;57.908;16.490;2023-06-22T06:45:55;2.13;;;1.92;;
12124;SDS011;6126;57.908;16.490;2023-06-22T06:48:21;2.58;;;2.10;;
12124;SDS011;6126;57.908;16.490;2023-06-22T06:50:47;2.97;;;2.45;;
12124;SDS011;6126;57.908;16.490;2023-06-22T06:53:13;4.13;;;3.28;;
12124;SDS011;6126;57.908;16.490;2023-06-22T06:55:38;7.25;;;2.58;;
12124;SDS011;6126;57.908;16.490;2023-06-22T06:58:04;4.30;;;2.30;;
12124;SDS011;6126;57.908;16.490;2023-06-22T07:00:32;7.47;;;2.25;;
12124;SDS011;6126;57.908;16.490;2023-06-22T07:02:58;2.70;;;2.22;;
12124;SDS011;6126;57.908;16.490;2023-06-22T07:05:24;3.25;;;2.78;;
12124;SDS011;6126;57.908;16.490;2023-06-22T07:07:50;4.63;;;2.63;;
12124;SDS011;6126;57.908;16.490;2023-06-22T07:10:16;3.03;;;2.35;;
12124;SDS011;6126;57.908;16.490;2023-06-22T07:12:42;2.00;;;1.80;;
12124;SDS011;6126;57.908;16.490;2023-06-22T07:15:08;3.70;;;2.47;;
12124;SDS011;6126;57.908;16.490;2023-06-22T07:17:36;3.22;;;2.28;;
12124;SDS011;6126;57.908;16.490;2023-06-22T07:20:05;6.00;;;2.72;;
12124;SDS011;6126;57.908;16.490;2023-06-22T07:22:35;3.33;;;2.03;;
12124;SDS011;6126;57.908;16.490;2023-06-22T07:25:02;2.65;;;2.17;;
12124;SDS011;6126;57.908;16.490;2023-06-22T07:27:35;2.20;;;2.00;;
12124;SDS011;6126;57.908;16.490;2023-06-22T07:30:03;2.78;;;2.20;;
12124;SDS011;6126;57.908;16.490;2023-06-22T07:32:30;2.30;;;2.10;;
12124;SDS011;6126;57.908;16.490;2023-06-22T07:34:56;2.85;;;2.50;;
12124;SDS011;6126;57.908;16.490;2023-06-22T07:37:21;9.43;;;2.72;;
12124;SDS011;6126;57.908;16.490;2023-06-22T07:39:47;5.55;;;2.53;;
12124;SDS011;6126;57.908;16.490;2023-06-22T07:42:15;3.92;;;2.88;;
12124;SDS011;6126;57.908;16.490;2023-06-22T07:44:43;1.83;;;1.73;;
12124;SDS011;6126;57.908;16.490;2023-06-22T07:47:09;3.03;;;2.50;;
12124;SDS011;6126;57.908;16.490;2023-06-22T07:49:35;2.95;;;2.20;;
12124;SDS011;6126;57.908;16.490;2023-06-22T07:52:01;2.28;;;1.77;;
12124;SDS011;6126;57.908;16.490;2023-06-22T07:54:27;3.55;;;1.98;;
12124;SDS011;6126;57.908;16.490;2023-06-22T07:56:53;2.80;;;2.40;;
12124;SDS011;6126;57.908;16.490;2023-06-22T07:59:19;4.40;;;2.10;;
12124;SDS011;6126;57.908;16.490;2023-06-22T08:01:44;3.15;;;2.05;;
12124;SDS011;6126;57.908;16.490;2023-06-22T08:04:10;4.43;;;2.20;;
12124;SDS011;6126;57.908;16.490;2023-06-22T08:06:36;3.60;;;2.30;;
12124;SDS011;6126;57.908;16.490;2023-06-22T08:09:02;2.75;;;2.15;;
12124;SDS011;6126;57.908;16.490;2023-06-22T08:11:28;3.22;;;2.63;;
12124;SDS011;6126;57.908;16.490;2023-06-22T08:13:54;2.78;;;2.15;;
12124;SDS011;6126;57.908;16.490;2023-06-22T08:16:20;6.00;;;2.40;;
12124;SDS011;6126;57.908;16.490;2023-06-22T08:18:47;7.10;;;2.65;;
12124;SDS011;6126;57.908;16.490;2023-06-22T08:21:12;3.38;;;2.20;;
12124;SDS011;6126;57.908;16.490;2023-06-22T08:23:38;2.47;;;1.77;;
12124;SDS011;6126;57.908;16.490;2023-06-22T08:26:04;2.60;;;2.15;;
12124;SDS011;6126;57.908;16.490;2023-06-22T08:28:30;2.33;;;2.08;;
12124;SDS011;6126;57.908;16.490;2023-06-22T08:30:56;4.07;;;1.67;;
12124;SDS011;6126;57.908;16.490;2023-06-22T08:33:22;2.35;;;1.83;;
12124;SDS011;6126;57.908;16.490;2023-06-22T08:35:53;4.30;;;2.30;;
12124;SDS011;6126;57.908;16.490;2023-06-22T08:38:20;3.65;;;2.67;;
12124;SDS011;6126;57.908;16.490;2023-06-22T08:40:46;2.42;;;2.17;;
12124;SDS011;6126;57.908;16.490;2023-06-22T08:43:12;2.28;;;2.08;;
12124;SDS011;6126;57.908;16.490;2023-06-22T08:45:39;3.10;;;2.28;;
12124;SDS011;6126;57.908;16.490;2023-06-22T08:48:05;2.28;;;2.03;;
12124;SDS011;6126;57.908;16.490;2023-06-22T08:50:30;3.17;;;2.35;;
12124;SDS011;6126;57.908;16.490;2023-06-22T08:52:56;2.42;;;2.15;;
12124;SDS011;6126;57.908;16.490;2023-06-22T08:55:22;2.30;;;2.00;;
12124;SDS011;6126;57.908;16.490;2023-06-22T08:57:48;2.80;;;2.03;;
12124;SDS011;6126;57.908;16.490;2023-06-22T09:00:14;3.97;;;2.13;;
12124;SDS011;6126;57.908;16.490;2023-06-22T09:02:45;3.60;;;2.50;;
12124;SDS011;6126;57.908;16.490;2023-06-22T09:05:12;2.40;;;1.98;;
12124;SDS011;6126;57.908;16.490;2023-06-22T09:07:39;3.25;;;2.15;;
12124;SDS011;6126;57.908;16.490;2023-06-22T09:10:05;3.63;;;2.40;;
12124;SDS011;6126;57.908;16.490;2023-06-22T09:12:32;3.00;;;2.28;;
12124;SDS011;6126;57.908;16.490;2023-06-22T09:14:59;2.80;;;1.95;;
12124;SDS011;6126;57.908;16.490;2023-06-22T09:17:26;2.38;;;2.17;;
12124;SDS011;6126;57.908;16.490;2023-06-22T09:19:53;2.42;;;2.10;;
12124;SDS011;6126;57.908;16.490;2023-06-22T09:22:19;2.60;;;2.20;;
12124;SDS011;6126;57.908;16.490;2023-06-22T09:24:45;3.40;;;2.03;;
12124;SDS011;6126;57.908;16.490;2023-06-22T09:27:11;2.88;;;2.42;;
12124;SDS011;6126;57.908;16.490;2023-06-22T09:29:37;3.25;;;2.13;;
12124;SDS011;6126;57.908;16.490;2023-06-22T09:32:02;3.45;;;2.22;;
12124;SDS011;6126;57.908;16.490;2023-06-22T09:34:29;3.92;;;2.40;;
12124;SDS011;6126;57.908;16.490;2023-06-22T09:36:56;4.97;;;2.60;;
12124;SDS011;6126;57.908;16.490;2023-06-22T09:39:25;3.00;;;2.15;;
12124;SDS011;6126;57.908;16.490;2023-06-22T09:41:51;2.47;;;2.05;;
12124;SDS011;6126;57.908;16.490;2023-06-22T09:44:17;2.53;;;2.20;;
12124;SDS011;6126;57.908;16.490;2023-06-22T09:46:43;3.83;;;2.08;;
12124;SDS011;6126;57.908;16.490;2023-06-22T09:49:09;2.25;;;2.05;;
12124;SDS011;6126;57.908;16.490;2023-06-22T09:51:35;3.72;;;2.30;;
12124;SDS011;6126;57.908;16.490;2023-06-22T09:54:01;2.85;;;2.20;;
12124;SDS011;6126;57.908;16.490;2023-06-22T09:56:27;2.80;;;2.20;;
12124;SDS011;6126;57.908;16.490;2023-06-22T09:58:54;2.28;;;2.08;;
12124;SDS011;6126;57.908;16.490;2023-06-22T10:01:20;3.25;;;2.35;;
12124;SDS011;6126;57.908;16.490;2023-06-22T10:03:46;3.20;;;2.22;;
12124;SDS011;6126;57.908;16.490;2023-06-22T10:06:12;2.63;;;2.03;;
12124;SDS011;6126;57.908;16.490;2023-06-22T10:08:38;2.47;;;2.00;;
12124;SDS011;6126;57.908;16.490;2023-06-22T10:11:05;2.75;;;2.30;;
12124;SDS011;6126;57.908;16.490;2023-06-22T10:13:31;3.75;;;2.47;;
12124;SDS011;6126;57.908;16.490;2023-06-22T10:15:57;3.25;;;2.28;;
12124;SDS011;6126;57.908;16.490;2023-06-22T10:18:23;5.07;;;2.78;;
12124;SDS011;6126;57.908;16.490;2023-06-22T10:20:49;3.10;;;2.45;;
12124;SDS011;6126;57.908;16.490;2023-06-22T10:23:17;3.40;;;2.63;;
12124;SDS011;6126;57.908;16.490;2023-06-22T10:25:46;2.63;;;2.42;;
12124;SDS011;6126;57.908;16.490;2023-06-22T10:28:13;3.42;;;2.25;;
12124;SDS011;6126;57.908;16.490;2023-06-22T10:30:39;2.55;;;2.35;;
12124;SDS011;6126;57.908;16.490;2023-06-22T10:33:09;3.33;;;2.35;;
12124;SDS011;6126;57.908;16.490;2023-06-22T10:35:36;2.28;;;2.05;;
12124;SDS011;6126;57.908;16.490;2023-06-22T10:38:03;2.38;;;2.05;;
12124;SDS011;6126;57.908;16.490;2023-06-22T10:40:30;2.88;;;2.38;;
12124;SDS011;6126;57.908;16.490;2023-06-22T10:42:56;3.42;;;2.00;;
12124;SDS011;6126;57.908;16.490;2023-06-22T10:45:22;2.72;;;1.85;;
12124;SDS011;6126;57.908;16.490;2023-06-22T10:47:48;2.65;;;2.10;;
12124;SDS011;6126;57.908;16.490;2023-06-22T10:50:13;2.53;;;2.30;;
12124;SDS011;6126;57.908;16.490;2023-06-22T10:52:40;2.53;;;2.08;;
12124;SDS011;6126;57.908;16.490;2023-06-22T10:55:09;3.78;;;2.53;;
12124;SDS011;6126;57.908;16.490;2023-06-22T10:57:36;3.20;;;2.17;;
12124;SDS011;6126;57.908;16.490;2023-06-22T11:00:04;3.67;;;1.95;;
12124;SDS011;6126;57.908;16.490;2023-06-22T11:02:31;4.20;;;2.33;;
12124;SDS011;6126;57.908;16.490;2023-06-22T11:04:57;3.70;;;2.17;;
12124;SDS011;6126;57.908;16.490;2023-06-22T11:07:25;5.78;;;1.90;;
12124;SDS011;6126;57.908;16.490;2023-06-22T11:09:53;4.07;;;2.00;;
12124;SDS011;6126;57.908;16.490;2023-06-22T11:12:20;1.50;;;1.40;;
12124;SDS011;6126;57.908;16.490;2023-06-22T11:14:46;2.20;;;1.98;;
12124;SDS011;6126;57.908;16.490;2023-06-22T11:17:12;4.70;;;1.85;;
12124;SDS011;6126;57.908;16.490;2023-06-22T11:19:37;2.05;;;1.80;;
12124;SDS011;6126;57.908;16.490;2023-06-22T11:22:03;2.53;;;2.15;;
12124;SDS011;6126;57.908;16.490;2023-06-22T11:24:29;3.58;;;2.25;;
12124;SDS011;6126;57.908;16.490;2023-06-22T11:26:55;3.05;;;1.98;;
12124;SDS011;6126;57.908;16.490;2023-06-22T11:29:21;2.58;;;2.20;;
12124;SDS011;6126;57.908;16.490;2023-06-22T11:31:47;4.50;;;1.90;;
12124;SDS011;6126;57.908;16.490;2023-06-22T11:34:13;2.33;;;1.70;;
12124;SDS011;6126;57.908;16.490;2023-06-22T11:36:39;2.45;;;1.77;;
12124;SDS011;6126;57.908;16.490;2023-06-22T11:39:05;4.90;;;1.77;;
12124;SDS011;6126;57.908;16.490;2023-06-22T11:41:34;2.45;;;1.60;;
12124;SDS011;6126;57.908;16.490;2023-06-22T11:44:00;2.10;;;1.90;;
12124;SDS011;6126;57.908;16.490;2023-06-22T11:46:26;2.60;;;1.95;;
12124;SDS011;6126;57.908;16.490;2023-06-22T11:48:52;2.65;;;2.05;;
12124;SDS011;6126;57.908;16.490;2023-06-22T11:51:18;1.95;;;1.83;;
12124;SDS011;6126;57.908;16.490;2023-06-22T11:53:44;3.72;;;2.28;;
12124;SDS011;6126;57.908;16.490;2023-06-22T11:56:10;2.95;;;1.73;;
12124;SDS011;6126;57.908;16.490;2023-06-22T11:58:36;2.92;;;2.13;;
12124;SDS011;6126;57.908;16.490;2023-06-22T12:01:01;1.92;;;1.60;;
12124;SDS011;6126;57.908;16.490;2023-06-22T12:03:27;4.18;;;2.42;;
12124;SDS011;6126;57.908;16.490;2023-06-22T12:05:54;2.28;;;1.75;;
12124;SDS011;6126;57.908;16.490;2023-06-22T12:08:20;2.03;;;1.83;;
12124;SDS011;6126;57.908;16.490;2023-06-22T12:10:46;3.00;;;1.90;;
12124;SDS011;6126;57.908;16.490;2023-06-22T12:13:12;3.13;;;2.03;;
12124;SDS011;6126;57.908;16.490;2023-06-22T12:15:38;3.55;;;1.80;;
12124;SDS011;6126;57.908;16.490;2023-06-22T12:18:03;3.30;;;1.80;;
12124;SDS011;6126;57.908;16.490;2023-06-22T12:20:29;2.40;;;2.20;;
12124;SDS011;6126;57.908;16.490;2023-06-22T12:22:55;2.85;;;2.00;;
12124;SDS011;6126;57.908;16.490;2023-06-22T12:25:23;2.17;;;1.98;;
12124;SDS011;6126;57.908;16.490;2023-06-22T12:27:49;3.03;;;2.22;;
12124;SDS011;6126;57.908;16.490;2023-06-22T12:30:16;2.70;;;2.15;;
12124;SDS011;6126;57.908;16.490;2023-06-22T12:32:42;2.40;;;2.13;;
12124;SDS011;6126;57.908;16.490;2023-06-22T12:35:08;3.08;;;1.95;;
12124;SDS011;6126;57.908;16.490;2023-06-22T12:37:39;3.38;;;2.25;;
12124;SDS011;6126;57.908;16.490;2023-06-22T12:40:07;1.80;;;1.70;;
12124;SDS011;6126;57.908;16.490;2023-06-22T12:42:34;2.95;;;2.22;;
12124;SDS011;6126;57.908;16.490;2023-06-22T12:45:00;4.75;;;2.22;;
12124;SDS011;6126;57.908;16.490;2023-06-22T12:47:26;4.70;;;2.30;;
12124;SDS011;6126;57.908;16.490;2023-06-22T12:49:52;2.63;;;2.40;;
12124;SDS011;6126;57.908;16.490;2023-06-22T12:52:17;2.95;;;2.38;;
12124;SDS011;6126;57.908;16.490;2023-06-22T12:54:43;3.45;;;2.40;;
12124;SDS011;6126;57.908;16.490;2023-06-22T12:57:09;2.40;;;2.00;;
12124;SDS011;6126;57.908;16.490;2023-06-22T12:59:35;2.55;;;1.92;;
12124;SDS011;6126;57.908;16.490;2023-06-22T13:02:01;2.58;;;1.92;;
12124;SDS011;6126;57.908;16.490;2023-06-22T13:04:27;2.55;;;2.03;;
12124;SDS011;6126;57.908;16.490;2023-06-22T13:06:53;2.28;;;2.05;;
12124;SDS011;6126;57.908;16.490;2023-06-22T13:09:19;2.75;;;2.00;;
12124;SDS011;6126;57.908;16.490;2023-06-22T13:11:45;2.13;;;1.92;;
12124;SDS011;6126;57.908;16.490;2023-06-22T13:14:11;2.40;;;1.88;;
12124;SDS011;6126;57.908;16.490;2023-06-22T13:16:37;2.65;;;1.80;;
12124;SDS011;6126;57.908;16.490;2023-06-22T13:19:03;3.05;;;1.75;;
12124;SDS011;6126;57.908;16.490;2023-06-22T13:21:29;3.40;;;2.10;;
12124;SDS011;6126;57.908;16.490;2023-06-22T13:23:56;2.35;;;2.03;;
12124;SDS011;6126;57.908;16.490;2023-06-22T13:26:21;2.45;;;2.10;;
12124;SDS011;6126;57.908;16.490;2023-06-22T13:28:47;2.50;;;2.30;;
12124;SDS011;6126;57.908;16.490;2023-06-22T13:31:13;2.30;;;2.05;;
12124;SDS011;6126;57.908;16.490;2023-06-22T13:33:39;2.45;;;2.05;;
12124;SDS011;6126;57.908;16.490;2023-06-22T13:36:06;2.00;;;1.90;;
12124;SDS011;6126;57.908;16.490;2023-06-22T13:38:32;4.78;;;2.33;;
12124;SDS011;6126;57.908;16.490;2023-06-22T13:41:03;5.28;;;2.22;;
12124;SDS011;6126;57.908;16.490;2023-06-22T13:43:30;1.98;;;1.85;;
12124;SDS011;6126;57.908;16.490;2023-06-22T13:45:57;3.63;;;1.98;;
12124;SDS011;6126;57.908;16.490;2023-06-22T13:48:23;2.70;;;2.17;;
12124;SDS011;6126;57.908;16.490;2023-06-22T13:50:51;2.25;;;2.00;;
12124;SDS011;6126;57.908;16.490;2023-06-22T13:53:17;2.72;;;2.15;;
12124;SDS011;6126;57.908;16.490;2023-06-22T13:55:44;2.15;;;1.95;;
12124;SDS011;6126;57.908;16.490;2023-06-22T13:58:09;2.65;;;1.90;;
12124;SDS011;6126;57.908;16.490;2023-06-22T14:00:35;2.85;;;2.15;;
12124;SDS011;6126;57.908;16.490;2023-06-22T14:03:02;2.70;;;2.10;;
12124;SDS011;6126;57.908;16.490;2023-06-22T14:05:28;2.40;;;1.92;;
12124;SDS011;6126;57.908;16.490;2023-06-22T14:07:54;2.60;;;2.13;;
12124;SDS011;6126;57.908;16.490;2023-06-22T14:10:20;2.08;;;1.88;;
12124;SDS011;6126;57.908;16.490;2023-06-22T14:12:45;4.07;;;2.53;;
12124;SDS011;6126;57.908;16.490;2023-06-22T14:15:11;2.80;;;2.15;;
12124;SDS011;6126;57.908;16.490;2023-06-22T14:17:37;4.45;;;2.30;;
12124;SDS011;6126;57.908;16.490;2023-06-22T14:20:03;2.92;;;2.13;;
12124;SDS011;6126;57.908;16.490;2023-06-22T14:22:30;2.55;;;1.77;;
12124;SDS011;6126;57.908;16.490;2023-06-22T14:24:56;3.28;;;2.22;;
12124;SDS011;6126;57.908;16.490;2023-06-22T14:27:23;3.97;;;2.40;;
12124;SDS011;6126;57.908;16.490;2023-06-22T14:29:49;3.40;;;1.85;;
12124;SDS011;6126;57.908;16.490;2023-06-22T14:32:15;2.75;;;1.90;;
12124;SDS011;6126;57.908;16.490;2023-06-22T14:34:41;4.80;;;2.28;;
12124;SDS011;6126;57.908;16.490;2023-06-22T14:37:08;3.15;;;2.03;;
12124;SDS011;6126;57.908;16.490;2023-06-22T14:39:40;2.45;;;2.00;;
12124;SDS011;6126;57.908;16.490;2023-06-22T14:42:06;2.00;;;1.70;;
12124;SDS011;6126;57.908;16.490;2023-06-22T14:44:33;2.30;;;2.10;;
12124;SDS011;6126;57.908;16.490;2023-06-22T14:47:00;3.17;;;1.88;;
12124;SDS011;6126;57.908;16.490;2023-06-22T14:49:26;3.05;;;1.95;;
12124;SDS011;6126;57.908;16.490;2023-06-22T14:51:52;2.83;;;1.95;;
12124;SDS011;6126;57.908;16.490;2023-06-22T14:54:18;3.17;;;1.70;;
12124;SDS011;6126;57.908;16.490;2023-06-22T14:56:44;1.70;;;1.60;;